Time;durP1;ratioP1;P1;durP2;ratioP2;P2;SDS_P1;SDS_P2;PMS_P1;PMS_P2;Temp;Humidity;BMP_temperature;BMP_pressure;BME280_temperature;BME280_humidity;BME280_pressure;Samples;Min_cycle;Max_cycle;Signal;HPM_P1;HPM_P2
2021/12/20 00:01:43;;;;;;;;;;;4.70;92.80;;;;;;4942290;28;19939;-76
2021/12/20 00:04:11;;;;;;;;;;;4.70;92.80;;;;;;4972650;28;19934;-75
2021/12/20 00:06:38;;;;;;;;;;;4.80;92.80;;;;;;4971189;28;19926;-77
2021/12/20 00:09:09;;;;;;;;;;;4.70;92.80;;;;;;4973444;28;19943;-77
2021/12/20 00:11:37;;;;;;;;;;;4.70;92.80;;;;;;4972240;28;19953;-76
2021/12/20 00:14:06;;;;;;;;;;;4.70;92.80;;;;;;4959605;28;19933;-77
2021/12/20 00:16:35;;;;;;;;;;;4.80;92.80;;;;;;4947894;28;19934;-76
2021/12/20 00:19:04;;;;;;;;;;;4.80;92.80;;;;;;4958779;28;19930;-77
2021/12/20 00:21:31;;;;;;;;;;;4.80;92.80;;;;;;4971597;28;19933;-75
2021/12/20 00:23:59;;;;;;;;;;;4.80;92.80;;;;;;4972145;28;19930;-77
2021/12/20 00:26:27;;;;;;;;;;;4.80;92.80;;;;;;4962096;28;19930;-75
2021/12/20 00:28:55;;;;;;;;;;;4.80;92.80;;;;;;4963343;28;20307;-77
2021/12/20 00:31:25;;;;;;;;;;;4.80;92.80;;;;;;4975468;28;19933;-77
2021/12/20 00:33:53;;;;;;;;;;;4.80;92.80;;;;;;4979615;28;19930;-76
2021/12/20 00:36:22;;;;;;;;;;;4.80;92.80;;;;;;4965266;28;20484;-76
2021/12/20 00:41:36;;;;;;;;;;;4.80;92.80;;;;;;4954779;28;19934;-76
2021/12/20 00:44:04;;;;;;;;;;;4.80;92.80;;;;;;4937626;29;19930;-77
2021/12/20 00:46:51;;;;;;;;;;;4.80;92.90;;;;;;4967955;28;19934;-76
2021/12/20 00:49:18;;;;;;;;;;;4.80;92.90;;;;;;4973530;28;19933;-76
2021/12/20 00:51:46;;;;;;;;;;;4.80;92.90;;;;;;4972490;28;19933;-76
2021/12/20 00:54:13;;;;;;;;;;;4.80;92.90;;;;;;4978001;28;20257;-76
2021/12/20 00:56:41;;;;;;;;;;;4.80;92.90;;;;;;4956708;28;19926;-77
2021/12/20 00:59:09;;;;;;;;;;;4.80;92.90;;;;;;4972465;28;19933;-77
2021/12/20 01:01:36;;;;;;;;;;;4.80;92.90;;;;;;4990587;28;19926;-77
2021/12/20 01:04:05;;;;;;;;;;;4.80;92.90;;;;;;4975206;28;19926;-76
2021/12/20 01:06:32;;;;;;;;;;;4.90;92.90;;;;;;4975947;28;19926;-76
2021/12/20 01:09:02;;;;;;;;;;;4.90;92.90;;;;;;4957240;28;19926;-76
2021/12/20 01:11:37;;;;;;;;;;;4.90;92.90;;;;;;4978996;28;20287;-76
2021/12/20 01:14:05;;;;;;;;;;;4.80;92.90;;;;;;4921458;28;19927;-76
2021/12/20 01:16:33;;;;;;;;;;;4.90;92.90;;;;;;4984759;28;19930;-76
2021/12/20 01:19:01;;;;;;;;;;;4.90;92.90;;;;;;4969313;28;19927;-76
2021/12/20 01:21:30;;;;;;;;;;;4.90;92.90;;;;;;4975123;28;19930;-76
2021/12/20 01:23:57;;;;;;;;;;;4.90;92.90;;;;;;4958937;28;19926;-76
2021/12/20 01:26:25;;;;;;;;;;;4.90;92.90;;;;;;4973409;28;19927;-76
2021/12/20 01:28:53;;;;;;;;;;;4.90;92.90;;;;;;4958399;28;19934;-76
2021/12/20 01:31:20;;;;;;;;;;;4.90;92.90;;;;;;4971671;28;19933;-76
2021/12/20 01:33:47;;;;;;;;;;;4.90;92.90;;;;;;4955451;28;19926;-76
2021/12/20 01:36:15;;;;;;;;;;;5.00;93.00;;;;;;4956206;28;19926;-75
2021/12/20 01:38:42;;;;;;;;;;;5.00;92.90;;;;;;4973040;28;19926;-76
2021/12/20 01:41:10;;;;;;;;;;;4.90;92.90;;;;;;4955351;28;19930;-76
2021/12/20 01:43:38;;;;;;;;;;;5.00;93.00;;;;;;4955895;28;19926;-76
2021/12/20 01:46:06;;;;;;;;;;;5.00;93.00;;;;;;4972708;28;20388;-76
2021/12/20 01:48:35;;;;;;;;;;;5.00;93.00;;;;;;4971289;28;20276;-76
2021/12/20 01:53:34;;;;;;;;;;;5.00;93.00;;;;;;4975727;28;20319;-76
2021/12/20 01:56:03;;;;;;;;;;;5.00;93.00;;;;;;4977619;28;20397;-76
2021/12/20 01:58:30;;;;;;;;;;;5.00;93.00;;;;;;4956150;28;20380;-76
2021/12/20 02:03:42;;;;;;;;;;;5.00;93.00;;;;;;4968015;28;20295;-76
2021/12/20 02:06:20;;;;;;;;;;;5.00;93.00;;;;;;4973096;28;19933;-76
2021/12/20 02:08:47;;;;;;;;;;;5.00;93.00;;;;;;4972237;28;19933;-76
2021/12/20 02:11:17;;;;;;;;;;;5.00;93.00;;;;;;4975501;28;19948;-77
2021/12/20 02:13:45;;;;;;;;;;;5.00;93.00;;;;;;4960189;28;19926;-77
2021/12/20 02:16:12;;;;;;;;;;;5.00;93.00;;;;;;4976723;28;19934;-76
2021/12/20 02:18:40;;;;;;;;;;;5.00;93.00;;;;;;4976277;28;20295;-76
2021/12/20 02:21:07;;;;;;;;;;;5.00;93.00;;;;;;4976650;28;19945;-76
2021/12/20 02:23:35;;;;;;;;;;;5.00;93.00;;;;;;4996491;28;19926;-76
2021/12/20 02:26:03;;;;;;;;;;;5.00;93.00;;;;;;4996225;28;19933;-76
2021/12/20 02:28:37;;;;;;;;;;;5.00;93.00;;;;;;4972502;28;19927;-76
2021/12/20 02:39:17;;;;;;;;;;;5.00;93.00;;;;;;4977028;28;19926;-76
2021/12/20 02:41:44;;;;;;;;;;;5.00;93.00;;;;;;4974836;28;20399;-76
2021/12/20 02:44:18;;;;;;;;;;;5.00;92.90;;;;;;4959136;28;20388;-77
2021/12/20 02:46:51;;;;;;;;;;;4.90;92.90;;;;;;4958618;28;19926;-76
2021/12/20 02:49:23;;;;;;;;;;;4.90;93.00;;;;;;4975696;28;19926;-75
2021/12/20 02:51:52;;;;;;;;;;;4.90;93.00;;;;;;4975894;28;19933;-75
2021/12/20 02:54:21;;;;;;;;;;;4.90;93.00;;;;;;4974768;28;19976;-75
2021/12/20 02:56:48;;;;;;;;;;;5.00;93.00;;;;;;4975597;28;19926;-76
2021/12/20 02:59:16;;;;;;;;;;;4.90;93.00;;;;;;4975461;28;19933;-76
2021/12/20 03:01:47;;;;;;;;;;;4.90;93.00;;;;;;4960498;28;19927;-76
2021/12/20 03:04:15;;;;;;;;;;;4.90;93.00;;;;;;4975686;28;19933;-76
2021/12/20 03:06:47;;;;;;;;;;;4.90;93.00;;;;;;4978202;28;20407;-76
2021/12/20 03:09:17;;;;;;;;;;;4.90;93.00;;;;;;4960693;28;19926;-76
2021/12/20 03:11:45;;;;;;;;;;;4.90;93.00;;;;;;4974676;28;20272;-76
2021/12/20 03:14:25;;;;;;;;;;;4.90;93.00;;;;;;4975689;28;19926;-76
2021/12/20 03:16:53;;;;;;;;;;;4.90;93.00;;;;;;4973470;28;20305;-76
2021/12/20 03:19:20;;;;;;;;;;;4.80;93.00;;;;;;4975665;28;19930;-75
2021/12/20 03:21:48;;;;;;;;;;;4.80;93.00;;;;;;4974732;28;20295;-76
2021/12/20 03:24:15;;;;;;;;;;;4.90;93.00;;;;;;4957848;28;19926;-76
2021/12/20 03:26:43;;;;;;;;;;;4.90;93.00;;;;;;4960187;28;19934;-76
2021/12/20 03:29:11;;;;;;;;;;;4.90;93.00;;;;;;4958339;28;19953;-76
2021/12/20 03:31:38;;;;;;;;;;;4.80;93.10;;;;;;4975326;28;19926;-76
2021/12/20 03:34:06;;;;;;;;;;;4.90;93.10;;;;;;4975316;28;19926;-76
2021/12/20 03:36:34;;;;;;;;;;;4.90;93.00;;;;;;4958111;28;19926;-76
2021/12/20 03:39:03;;;;;;;;;;;4.80;93.00;;;;;;4974479;28;19985;-76
2021/12/20 03:41:31;;;;;;;;;;;4.80;93.00;;;;;;4979362;28;20312;-76
2021/12/20 03:43:58;;;;;;;;;;;4.80;93.00;;;;;;4984569;28;19926;-76
2021/12/20 03:46:26;;;;;;;;;;;4.80;93.00;;;;;;4974446;28;19926;-76
2021/12/20 03:48:53;;;;;;;;;;;4.80;93.00;;;;;;4974807;28;20303;-76
2021/12/20 03:51:20;;;;;;;;;;;4.80;93.10;;;;;;4985410;28;20379;-76
2021/12/20 03:53:48;;;;;;;;;;;4.80;93.10;;;;;;4949108;28;19926;-76
2021/12/20 03:56:15;;;;;;;;;;;4.80;93.10;;;;;;4975124;28;19930;-76
2021/12/20 03:58:42;;;;;;;;;;;4.80;93.10;;;;;;4974756;28;19933;-76
2021/12/20 04:01:11;;;;;;;;;;;4.80;93.10;;;;;;4974801;28;20002;-76
2021/12/20 04:03:39;;;;;;;;;;;4.80;93.10;;;;;;4974338;28;19942;-76
2021/12/20 04:06:08;;;;;;;;;;;4.80;93.10;;;;;;4974915;28;19933;-76
2021/12/20 04:08:35;;;;;;;;;;;4.80;93.10;;;;;;4973402;28;19933;-77
2021/12/20 04:11:03;;;;;;;;;;;4.80;93.10;;;;;;4974154;28;19934;-76
2021/12/20 04:13:31;;;;;;;;;;;4.80;93.10;;;;;;4974822;28;19930;-76
2021/12/20 04:15:58;;;;;;;;;;;4.80;93.10;;;;;;4974776;28;20283;-76
2021/12/20 04:18:27;;;;;;;;;;;4.80;93.10;;;;;;4972978;28;19926;-76
2021/12/20 04:20:59;;;;;;;;;;;4.80;93.10;;;;;;4958182;28;19926;-76
2021/12/20 04:23:26;;;;;;;;;;;4.80;93.10;;;;;;4974547;28;20237;-76
2021/12/20 04:25:54;;;;;;;;;;;4.80;93.10;;;;;;4973008;28;19937;-76
2021/12/20 04:28:22;;;;;;;;;;;4.80;93.10;;;;;;4963344;28;19957;-76
2021/12/20 04:30:49;;;;;;;;;;;4.80;93.10;;;;;;4957194;28;19948;-76
2021/12/20 04:33:17;;;;;;;;;;;4.80;93.10;;;;;;4988218;28;19934;-76
2021/12/20 04:35:44;;;;;;;;;;;4.80;93.10;;;;;;4962451;28;19926;-76
2021/12/20 04:38:12;;;;;;;;;;;4.80;93.10;;;;;;4948487;29;19926;-76
2021/12/20 04:40:40;;;;;;;;;;;4.80;93.10;;;;;;4951967;28;19933;-76
2021/12/20 04:43:07;;;;;;;;;;;4.80;93.10;;;;;;4973990;28;19930;-76
2021/12/20 04:45:35;;;;;;;;;;;4.80;93.10;;;;;;4973888;28;19949;-76
2021/12/20 04:48:03;;;;;;;;;;;4.80;93.10;;;;;;4966100;28;19933;-76
2021/12/20 04:50:31;;;;;;;;;;;4.80;93.10;;;;;;4966506;28;19953;-76
2021/12/20 04:52:59;;;;;;;;;;;4.90;93.10;;;;;;4973282;28;20388;-76
2021/12/20 04:55:28;;;;;;;;;;;4.90;93.10;;;;;;4973836;28;19926;-76
2021/12/20 04:57:56;;;;;;;;;;;4.90;93.10;;;;;;4948573;29;19926;-76
2021/12/20 05:00:24;;;;;;;;;;;4.90;93.20;;;;;;4971022;28;19926;-76
2021/12/20 05:02:52;;;;;;;;;;;4.90;93.20;;;;;;4960466;28;19926;-76
2021/12/20 05:05:21;;;;;;;;;;;4.90;93.20;;;;;;4973378;28;19927;-76
2021/12/20 05:07:49;;;;;;;;;;;4.90;93.10;;;;;;4972545;28;20383;-76
2021/12/20 05:10:27;;;;;;;;;;;5.00;93.10;;;;;;4972789;28;20318;-76
2021/12/20 05:12:56;;;;;;;;;;;5.10;93.00;;;;;;4973707;28;19933;-76
2021/12/20 05:15:24;;;;;;;;;;;5.10;93.00;;;;;;4973886;28;19926;-76
2021/12/20 05:17:52;;;;;;;;;;;5.20;92.90;;;;;;4949789;28;19934;-76
2021/12/20 05:20:19;;;;;;;;;;;5.30;92.80;;;;;;4973799;28;19926;-76
2021/12/20 05:22:47;;;;;;;;;;;5.30;92.70;;;;;;4973441;28;19926;-76
2021/12/20 05:25:14;;;;;;;;;;;5.30;92.60;;;;;;4972420;28;19934;-76
2021/12/20 05:27:42;;;;;;;;;;;5.30;92.50;;;;;;4973483;28;20284;-76
2021/12/20 05:30:10;;;;;;;;;;;5.30;92.50;;;;;;4973952;28;19934;-76
2021/12/20 05:32:37;;;;;;;;;;;5.30;92.40;;;;;;4973137;28;19933;-76
2021/12/20 05:35:05;;;;;;;;;;;5.30;92.40;;;;;;4973042;28;19931;-76
2021/12/20 05:37:33;;;;;;;;;;;5.40;92.40;;;;;;4965789;28;20333;-76
2021/12/20 05:40:04;;;;;;;;;;;5.30;92.40;;;;;;4972988;28;19926;-76
2021/12/20 05:42:31;;;;;;;;;;;5.40;92.30;;;;;;4973783;28;19926;-76
2021/12/20 05:44:58;;;;;;;;;;;5.40;92.30;;;;;;4973798;28;19933;-76
2021/12/20 05:47:26;;;;;;;;;;;5.40;92.30;;;;;;4966842;28;20368;-76
2021/12/20 05:49:53;;;;;;;;;;;5.40;92.20;;;;;;4975576;28;20396;-76
2021/12/20 05:52:21;;;;;;;;;;;5.40;92.20;;;;;;4977516;28;20407;-75
2021/12/20 05:54:48;;;;;;;;;;;5.50;92.20;;;;;;4974714;28;19949;-75
2021/12/20 05:57:15;;;;;;;;;;;5.40;92.20;;;;;;4966227;28;19926;-76
2021/12/20 05:59:43;;;;;;;;;;;5.40;92.20;;;;;;4977372;28;19933;-76
2021/12/20 06:02:10;;;;;;;;;;;5.50;92.20;;;;;;4972120;28;19927;-76
2021/12/20 06:04:37;;;;;;;;;;;5.40;92.10;;;;;;4972974;28;20391;-76
2021/12/20 06:07:05;;;;;;;;;;;5.50;92.20;;;;;;4959479;28;20447;-75
2021/12/20 06:09:32;;;;;;;;;;;5.50;92.20;;;;;;4977151;28;19926;-76
2021/12/20 06:12:00;;;;;;;;;;;5.40;92.20;;;;;;4991638;28;19926;-76
2021/12/20 06:14:28;;;;;;;;;;;5.40;92.10;;;;;;4976483;28;19926;-76
2021/12/20 06:16:57;;;;;;;;;;;5.50;92.20;;;;;;4976863;28;19933;-76
2021/12/20 06:19:25;;;;;;;;;;;5.40;92.20;;;;;;4976564;28;19933;-76
2021/12/20 06:21:53;;;;;;;;;;;5.50;92.10;;;;;;4976213;28;20410;-76
2021/12/20 06:24:20;;;;;;;;;;;5.50;92.10;;;;;;4975315;28;19926;-75
2021/12/20 06:26:47;;;;;;;;;;;5.50;92.10;;;;;;4975402;28;19933;-76
2021/12/20 06:29:15;;;;;;;;;;;5.50;92.10;;;;;;4959010;28;19926;-75
2021/12/20 06:31:42;;;;;;;;;;;5.50;92.10;;;;;;4969919;28;19937;-76
2021/12/20 06:34:10;;;;;;;;;;;5.50;92.10;;;;;;4975937;28;19926;-76
2021/12/20 06:36:37;;;;;;;;;;;5.50;92.10;;;;;;4976049;28;19934;-76
2021/12/20 06:39:05;;;;;;;;;;;5.50;92.10;;;;;;4975843;28;19933;-76
2021/12/20 06:41:32;;;;;;;;;;;5.50;92.10;;;;;;4960626;28;19930;-76
2021/12/20 06:44:02;;;;;;;;;;;5.50;92.10;;;;;;4968706;28;19927;-76
2021/12/20 06:46:31;;;;;;;;;;;5.50;92.10;;;;;;4971941;28;20427;-76
2021/12/20 06:48:59;;;;;;;;;;;5.50;92.10;;;;;;4959322;28;19926;-76
2021/12/20 06:51:27;;;;;;;;;;;5.50;92.10;;;;;;4975838;28;19926;-76
2021/12/20 06:53:55;;;;;;;;;;;5.50;92.10;;;;;;4976239;28;19951;-76
2021/12/20 06:56:23;;;;;;;;;;;5.50;92.20;;;;;;4981321;28;19953;-76
2021/12/20 06:58:53;;;;;;;;;;;5.50;92.20;;;;;;4968148;28;19926;-76
2021/12/20 07:01:21;;;;;;;;;;;5.50;92.20;;;;;;4990956;28;19926;-76
2021/12/20 07:03:48;;;;;;;;;;;5.50;92.20;;;;;;4975787;28;20007;-76
2021/12/20 07:06:16;;;;;;;;;;;5.50;92.20;;;;;;4976293;28;20291;-76
2021/12/20 07:08:43;;;;;;;;;;;5.50;92.20;;;;;;4958291;28;20430;-76
2021/12/20 07:11:10;;;;;;;;;;;5.50;92.20;;;;;;4968974;28;19926;-76
2021/12/20 07:13:39;;;;;;;;;;;5.50;92.20;;;;;;4965782;28;19926;-76
2021/12/20 07:16:07;;;;;;;;;;;5.50;92.20;;;;;;4975701;28;19927;-76
2021/12/20 07:18:35;;;;;;;;;;;5.50;92.30;;;;;;4981649;28;19933;-76
2021/12/20 07:21:06;;;;;;;;;;;5.50;92.30;;;;;;4989430;28;19934;-76
2021/12/20 07:23:34;;;;;;;;;;;5.50;92.30;;;;;;4974950;28;19926;-76
2021/12/20 07:26:02;;;;;;;;;;;5.50;92.30;;;;;;4975298;28;19933;-76
2021/12/20 07:28:29;;;;;;;;;;;5.50;92.30;;;;;;4974869;28;19932;-76
2021/12/20 07:30:57;;;;;;;;;;;5.50;92.30;;;;;;4975032;28;19926;-76
2021/12/20 07:33:24;;;;;;;;;;;5.50;92.30;;;;;;4957579;28;20315;-76
2021/12/20 07:35:52;;;;;;;;;;;5.50;92.20;;;;;;4974616;28;19946;-76
2021/12/20 07:38:20;;;;;;;;;;;5.50;92.20;;;;;;4974920;28;19933;-77
2021/12/20 07:40:48;;;;;;;;;;;5.50;92.20;;;;;;4990031;28;19926;-76
2021/12/20 07:43:17;;;;;;;;;;;5.50;92.30;;;;;;4974435;28;19926;-76
2021/12/20 07:45:47;;;;;;;;;;;5.50;92.20;;;;;;4960406;28;19926;-76
2021/12/20 07:48:15;;;;;;;;;;;5.50;92.20;;;;;;4974017;28;19933;-76
2021/12/20 07:50:43;;;;;;;;;;;5.50;92.20;;;;;;4974881;28;19930;-76
2021/12/20 07:53:11;;;;;;;;;;;5.50;92.20;;;;;;4974736;28;19926;-76
2021/12/20 07:55:39;;;;;;;;;;;5.60;92.20;;;;;;4967843;28;19933;-76
2021/12/20 07:58:06;;;;;;;;;;;5.60;92.20;;;;;;4966694;28;19926;-76
2021/12/20 08:00:34;;;;;;;;;;;5.50;92.20;;;;;;4974527;28;20305;-76
2021/12/20 08:03:02;;;;;;;;;;;5.60;92.20;;;;;;4957041;28;19927;-77
2021/12/20 08:05:30;;;;;;;;;;;5.60;92.10;;;;;;4980133;28;19932;-76
2021/12/20 08:07:57;;;;;;;;;;;5.60;92.10;;;;;;4975773;28;19934;-75
2021/12/20 08:10:25;;;;;;;;;;;5.60;92.10;;;;;;4975210;28;20307;-76
2021/12/20 08:12:53;;;;;;;;;;;5.60;92.10;;;;;;4973983;28;19930;-76
2021/12/20 08:15:26;;;;;;;;;;;5.60;92.10;;;;;;4977553;28;19933;-76
2021/12/20 08:17:54;;;;;;;;;;;5.60;92.10;;;;;;4988806;28;19937;-75
2021/12/20 08:20:21;;;;;;;;;;;5.60;92.10;;;;;;4974411;28;19934;-76
2021/12/20 08:22:49;;;;;;;;;;;5.60;92.00;;;;;;4974636;28;19926;-76
2021/12/20 08:25:18;;;;;;;;;;;5.60;92.00;;;;;;4974346;28;19991;-76
2021/12/20 08:27:46;;;;;;;;;;;5.60;92.00;;;;;;4957408;28;19926;-76
2021/12/20 08:30:14;;;;;;;;;;;5.60;92.00;;;;;;4973719;28;19930;-75
2021/12/20 08:32:41;;;;;;;;;;;5.60;92.00;;;;;;4973421;28;19941;-76
2021/12/20 08:35:10;;;;;;;;;;;5.60;92.00;;;;;;4973758;28;19926;-76
2021/12/20 08:37:38;;;;;;;;;;;5.60;91.90;;;;;;4974346;28;19926;-76
2021/12/20 08:40:07;;;;;;;;;;;5.60;91.90;;;;;;4987458;28;19926;-75
2021/12/20 08:42:34;;;;;;;;;;;5.60;92.00;;;;;;4966597;28;19934;-75
2021/12/20 08:45:02;;;;;;;;;;;5.60;92.00;;;;;;4974232;28;19926;-76
2021/12/20 08:47:32;;;;;;;;;;;5.60;92.00;;;;;;4963699;28;19934;-76
2021/12/20 08:50:01;;;;;;;;;;;5.60;92.00;;;;;;4956503;28;19934;-76
2021/12/20 08:52:28;;;;;;;;;;;5.60;91.90;;;;;;4974170;28;19926;-76
2021/12/20 08:54:56;;;;;;;;;;;5.60;92.00;;;;;;4974025;28;19926;-76
2021/12/20 08:57:23;;;;;;;;;;;5.60;92.00;;;;;;4974022;28;19930;-75
2021/12/20 08:59:51;;;;;;;;;;;5.60;92.10;;;;;;4956878;28;19926;-75
2021/12/20 09:02:18;;;;;;;;;;;5.60;92.10;;;;;;4973830;28;20272;-76
2021/12/20 09:04:45;;;;;;;;;;;5.70;92.20;;;;;;4973006;28;20385;-76
2021/12/20 09:07:16;;;;;;;;;;;5.70;92.20;;;;;;4956869;28;20308;-76
2021/12/20 09:09:46;;;;;;;;;;;5.70;92.20;;;;;;4973724;28;19937;-76
2021/12/20 09:12:15;;;;;;;;;;;5.70;92.30;;;;;;4956376;28;19938;-76
2021/12/20 09:14:42;;;;;;;;;;;5.70;92.20;;;;;;4954593;28;19933;-77
2021/12/20 09:17:10;;;;;;;;;;;5.70;92.30;;;;;;4970610;28;19996;-78
2021/12/20 09:19:38;;;;;;;;;;;5.80;92.30;;;;;;4963570;28;19927;-74
2021/12/20 09:22:06;;;;;;;;;;;5.80;92.30;;;;;;4973737;28;19945;-75
2021/12/20 09:24:34;;;;;;;;;;;5.80;92.30;;;;;;4974760;28;19930;-74
2021/12/20 09:27:02;;;;;;;;;;;5.80;92.30;;;;;;4985863;28;19956;-74
2021/12/20 09:29:30;;;;;;;;;;;5.80;92.30;;;;;;4953839;29;19933;-74
2021/12/20 09:31:57;;;;;;;;;;;5.80;92.30;;;;;;4944948;29;19938;-74
2021/12/20 09:34:25;;;;;;;;;;;5.80;92.30;;;;;;4952684;28;19949;-76
2021/12/20 09:36:54;;;;;;;;;;;5.80;92.30;;;;;;4972750;28;20296;-75
2021/12/20 09:39:22;;;;;;;;;;;5.80;92.30;;;;;;4960803;28;19947;-74
2021/12/20 09:44:23;;;;;;;;;;;5.90;92.30;;;;;;4973528;28;20277;-76
2021/12/20 09:46:53;;;;;;;;;;;5.90;92.20;;;;;;4955649;28;19926;-75
2021/12/20 09:49:21;;;;;;;;;;;6.00;92.20;;;;;;4973798;28;19926;-75
2021/12/20 09:51:48;;;;;;;;;;;6.00;92.20;;;;;;4973281;28;19949;-75
2021/12/20 09:54:16;;;;;;;;;;;6.00;92.10;;;;;;4973546;28;19926;-75
2021/12/20 09:56:44;;;;;;;;;;;6.00;92.10;;;;;;4972813;28;19926;-75
2021/12/20 09:59:16;;;;;;;;;;;6.10;92.00;;;;;;4955854;28;19927;-75
2021/12/20 10:01:45;;;;;;;;;;;6.10;91.90;;;;;;4988094;28;19982;-80
2021/12/20 10:04:13;;;;;;;;;;;6.10;91.90;;;;;;4956483;28;20409;-75
2021/12/20 10:06:42;;;;;;;;;;;6.10;91.90;;;;;;4973028;28;19926;-77
2021/12/20 10:09:12;;;;;;;;;;;6.20;91.80;;;;;;4973413;28;19933;-76
2021/12/20 10:11:43;;;;;;;;;;;6.20;91.80;;;;;;4987600;28;19926;-76
2021/12/20 10:14:12;;;;;;;;;;;6.20;91.80;;;;;;4954654;28;19926;-77
2021/12/20 10:16:41;;;;;;;;;;;6.20;91.70;;;;;;4971105;28;19953;-76
2021/12/20 10:19:29;;;;;;;;;;;6.20;91.60;;;;;;4972580;28;19930;-76
2021/12/20 10:21:58;;;;;;;;;;;6.30;91.50;;;;;;4972854;28;19927;-80
2021/12/20 10:24:30;;;;;;;;;;;6.30;91.40;;;;;;4983164;28;19926;-78
2021/12/20 10:26:57;;;;;;;;;;;6.30;91.30;;;;;;4987540;28;19926;-76
2021/12/20 10:29:25;;;;;;;;;;;6.30;91.30;;;;;;4989796;28;19926;-76
2021/12/20 10:31:53;;;;;;;;;;;6.30;91.20;;;;;;4960501;28;19934;-75
2021/12/20 10:34:32;;;;;;;;;;;6.40;91.10;;;;;;4977114;28;19933;-76
2021/12/20 10:37:01;;;;;;;;;;;6.40;90.90;;;;;;4991864;28;20391;-76
2021/12/20 10:39:34;;;;;;;;;;;6.40;90.60;;;;;;4970366;28;19926;-76
2021/12/20 10:42:13;;;;;;;;;;;6.40;90.60;;;;;;4934572;29;19927;-76
2021/12/20 10:44:40;;;;;;;;;;;6.50;90.60;;;;;;4939197;29;19927;-75
2021/12/20 10:47:24;;;;;;;;;;;6.40;90.60;;;;;;4961791;28;19938;-75
2021/12/20 10:49:51;;;;;;;;;;;6.50;90.60;;;;;;4974987;28;19933;-76
2021/12/20 10:52:26;;;;;;;;;;;6.40;90.50;;;;;;4985692;28;19934;-75
2021/12/20 10:54:53;;;;;;;;;;;6.40;90.30;;;;;;4978415;28;20452;-75
2021/12/20 10:57:27;;;;;;;;;;;6.30;90.30;;;;;;4977912;28;19930;-76
2021/12/20 11:00:14;;;;;;;;;;;6.30;90.30;;;;;;4977901;28;19933;-75
2021/12/20 11:06:12;;;;;;;;;;;6.30;90.40;;;;;;4975379;28;19933;-75
2021/12/20 11:11:21;;;;;;;;;;;6.20;90.40;;;;;;4944257;28;19926;-76
2021/12/20 11:13:48;;;;;;;;;;;6.20;90.40;;;;;;4995397;28;20283;-75
2021/12/20 11:16:22;;;;;;;;;;;6.20;90.50;;;;;;4974317;28;20268;-76
2021/12/20 11:19:08;;;;;;;;;;;6.20;90.40;;;;;;4972728;28;19937;-75
2021/12/20 11:21:36;;;;;;;;;;;6.20;90.30;;;;;;4978884;28;19926;-76
2021/12/20 11:24:11;;;;;;;;;;;6.20;90.30;;;;;;4976147;28;19999;-75
2021/12/20 11:26:39;;;;;;;;;;;6.10;90.20;;;;;;4979057;28;19945;-75
2021/12/20 11:29:07;;;;;;;;;;;6.10;90.20;;;;;;4975213;28;19926;-82
2021/12/20 11:31:34;;;;;;;;;;;6.00;90.20;;;;;;4962016;28;19941;-86
2021/12/20 11:34:05;;;;;;;;;;;6.00;90.30;;;;;;4963510;28;19937;-77
2021/12/20 11:36:33;;;;;;;;;;;6.00;90.30;;;;;;4969269;28;20304;-75
2021/12/20 11:41:02;;;;;;;10.88;6.40;;;6.00;90.30;;;;;;5069289;28;20441;-77
2021/12/20 11:43:30;;;;;;;8.07;5.38;;;6.00;90.20;;;;;;5051692;28;20410;-78
2021/12/20 11:45:59;;;;;;;6.40;4.70;;;6.00;90.10;;;;;;5051480;28;20069;-78
2021/12/20 11:48:29;;;;;;;5.38;3.50;;;6.00;89.90;;;;;;5068383;28;20040;-77
2021/12/20 11:50:58;;;;;;;5.95;3.72;;;6.00;89.80;;;;;;5069643;28;20045;-78
2021/12/20 11:53:37;;;;;;;5.20;3.40;;;5.90;89.60;;;;;;5060526;28;20068;-78
2021/12/20 11:56:05;;;;;;;5.68;4.32;;;5.90;89.30;;;;;;5048066;28;20044;-78
2021/12/20 11:58:34;;;;;;;6.05;4.80;;;5.90;89.20;;;;;;5031682;28;20415;-78
2021/12/20 12:01:23;;;;;;;6.35;5.03;;;5.90;89.10;;;;;;5048055;28;20049;-78
2021/12/20 12:03:58;;;;;;;6.80;5.38;;;5.90;88.90;;;;;;5049860;28;20475;-78
2021/12/20 12:06:28;;;;;;;9.30;5.85;;;5.80;88.90;;;;;;5048509;28;20037;-78
2021/12/20 12:08:58;;;;;;;11.32;6.05;;;5.80;89.00;;;;;;5059963;28;20053;-77
2021/12/20 12:11:41;;;;;;;10.32;5.88;;;5.80;89.10;;;;;;5069085;28;20063;-78
2021/12/20 12:14:20;;;;;;;14.75;6.40;;;5.80;89.10;;;;;;5068986;28;20406;-78
2021/12/20 12:17:03;;;;;;;11.45;6.55;;;5.80;89.20;;;;;;5066721;28;20048;-78
2021/12/20 12:19:53;;;;;;;11.45;6.68;;;5.80;89.20;;;;;;5051023;28;20048;-78
2021/12/20 12:22:26;;;;;;;16.07;6.43;;;5.80;89.20;;;;;;5069109;28;20045;-78
2021/12/20 12:24:58;;;;;;;15.82;6.90;;;5.70;89.20;;;;;;5065287;28;20052;-78
2021/12/20 12:27:31;;;;;;;10.25;5.88;;;5.80;89.20;;;;;;5068961;28;20048;-79
2021/12/20 12:30:23;;;;;;;10.45;6.35;;;5.70;89.10;;;;;;5068824;28;20418;-83
2021/12/20 12:32:51;;;;;;;18.30;6.97;;;5.70;89.10;;;;;;5064123;28;20060;-78
2021/12/20 12:35:37;;;;;;;11.88;6.47;;;5.70;89.20;;;;;;5059325;28;20049;-78
2021/12/20 12:38:39;;;;;;;10.88;6.40;;;5.70;89.10;;;;;;5045759;28;20060;-77
2021/12/20 12:41:12;;;;;;;12.55;5.63;;;5.70;89.10;;;;;;5047976;28;20041;-77
2021/12/20 12:44:03;;;;;;;11.57;5.93;;;5.70;89.10;;;;;;5063512;28;20049;-78
2021/12/20 12:46:43;;;;;;;10.30;5.05;;;5.60;89.20;;;;;;5068219;28;20055;-77
2021/12/20 12:49:25;;;;;;;15.27;4.30;;;5.60;89.20;;;;;;5067001;28;20056;-77
2021/12/20 12:52:00;;;;;;;8.98;3.67;;;5.60;89.20;;;;;;5056403;28;20072;-78
2021/12/20 12:55:01;;;;;;;10.20;3.88;;;5.60;89.10;;;;;;5054934;28;20041;-78
2021/12/20 12:57:32;;;;;;;10.32;3.80;;;5.60;88.90;;;;;;5035652;28;20517;-77
2021/12/20 13:00:08;;;;;;;14.07;3.45;;;5.60;88.90;;;;;;5034933;28;20052;-77
2021/12/20 13:02:43;;;;;;;10.40;3.30;;;5.60;88.80;;;;;;5047546;28;20041;-78
2021/12/20 13:05:17;;;;;;;10.20;3.10;;;5.50;88.80;;;;;;5037207;28;20502;-78
2021/12/20 13:07:50;;;;;;;9.40;3.10;;;5.50;88.90;;;;;;5053418;28;20494;-77
2021/12/20 13:10:29;;;;;;;11.30;3.15;;;5.50;88.90;;;;;;5054680;28;20045;-77
2021/12/20 13:13:10;;;;;;;9.05;2.88;;;5.50;88.90;;;;;;5054766;28;20045;-78
2021/12/20 13:18:11;;;;;;;14.10;3.40;;;5.50;88.90;;;;;;5033450;28;20061;-78
2021/12/20 13:21:37;;;;;;;;;;;5.50;88.90;;;;;;5035822;28;20076;-78
2021/12/20 13:23:41;;;;;;;9.43;3.10;;;5.50;88.90;;;;;;5034746;28;19928;-78
2021/12/20 13:26:17;;;;;;;14.13;3.67;;;5.50;88.70;;;;;;5019394;28;20053;-77
2021/12/20 13:28:47;;;;;;;10.48;3.60;;;5.50;88.60;;;;;;5033412;28;20053;-77
2021/12/20 13:31:21;;;;;;;10.07;3.20;;;5.50;88.40;;;;;;5034793;28;20052;-78
2021/12/20 13:33:51;;;;;;;14.10;3.70;;;5.50;88.20;;;;;;5034352;28;20057;-77
2021/12/20 13:36:25;;;;;;;12.05;4.00;;;5.40;88.20;;;;;;5033101;28;20052;-77
2021/12/20 13:38:55;;;;;;;23.88;4.40;;;5.40;88.10;;;;;;5034151;28;20521;-77
2021/12/20 13:41:28;;;;;;;16.75;3.72;;;5.40;88.10;;;;;;5034028;28;20045;-77
2021/12/20 13:43:58;;;;;;;;;;;5.40;88.00;;;;;;5050014;28;20065;-78
2021/12/20 13:46:31;;;;;;;14.75;3.80;;;5.40;87.70;;;;;;5043896;28;20492;-77
2021/12/20 13:49:04;;;;;;;18.50;3.60;;;5.30;87.60;;;;;;5054168;28;20049;-77
2021/12/20 13:51:53;;;;;;;19.73;2.83;;;5.30;87.50;;;;;;5052535;28;20048;-78
2021/12/20 13:54:32;;;;;;;22.48;3.63;;;5.30;87.40;;;;;;5045923;28;20069;-78
2021/12/20 13:57:11;;;;;;;8.77;2.95;;;5.30;87.40;;;;;;5049293;28;20050;-77
2021/12/20 13:59:40;;;;;;;18.10;3.45;;;5.30;87.40;;;;;;5049132;28;20064;-77
2021/12/20 14:02:14;;;;;;;19.50;3.40;;;5.30;87.40;;;;;;5047841;28;20057;-77
2021/12/20 14:04:45;;;;;;;18.30;3.53;;;5.30;87.20;;;;;;5052243;28;20049;-78
2021/12/20 14:07:31;;;;;;;11.82;3.20;;;5.30;86.90;;;;;;5055060;28;20053;-77
2021/12/20 14:10:11;;;;;;;15.27;3.08;;;5.30;86.90;;;;;;5052616;28;20410;-77
2021/12/20 14:12:40;;;;;;;19.30;3.40;;;5.30;86.90;;;;;;5053626;28;20052;-76
2021/12/20 14:15:35;;;;;;;18.27;3.30;;;5.30;86.80;;;;;;5051614;28;20403;-77
2021/12/20 14:18:09;;;;;;;17.98;4.00;;;5.30;86.60;;;;;;5053232;28;20060;-78
2021/12/20 14:20:48;;;;;;;22.13;4.75;;;5.20;86.60;;;;;;5053137;28;20410;-78
2021/12/20 14:23:25;;;;;;;15.00;4.53;;;5.20;86.50;;;;;;5052152;28;20059;-77
2021/12/20 14:26:12;;;;;;;18.63;4.90;;;5.20;86.40;;;;;;5053418;28;20067;-77
2021/12/20 14:28:49;;;;;;;18.00;3.85;;;5.10;86.30;;;;;;5051991;28;20045;-77
2021/12/20 14:31:35;;;;;;;16.67;4.50;;;5.10;86.10;;;;;;5044678;28;20053;-77
2021/12/20 14:34:06;;;;;;;16.23;3.33;;;5.10;85.90;;;;;;5033286;28;20041;-77
2021/12/20 14:36:38;;;;;;;16.77;3.42;;;5.10;85.70;;;;;;5013880;28;20049;-77
2021/12/20 14:39:12;;;;;;;17.00;3.75;;;5.10;85.70;;;;;;5031850;28;20045;-77
2021/12/20 14:41:41;;;;;;;19.67;3.80;;;5.00;85.50;;;;;;5032968;28;20046;-77
2021/12/20 14:44:16;;;;;;;25.38;3.38;;;5.10;85.50;;;;;;5031851;28;20045;-77
2021/12/20 14:46:58;;;;;;;22.10;3.60;;;5.00;85.30;;;;;;5031936;28;20049;-77
2021/12/20 14:49:52;;;;;;;14.60;2.83;;;5.00;85.30;;;;;;5031906;28;20050;-78
2021/12/20 14:52:28;;;;;;;21.75;2.70;;;5.00;85.40;;;;;;5052751;28;20041;-78
2021/12/20 14:54:58;;;;;;;17.13;3.20;;;5.00;85.20;;;;;;5051633;28;20052;-78